sensor_id;sensor_type;location;lat;lon;timestamp;pressure;altitude;pressure_sealevel;temperature;humidity
56604;BME280;42486;47.478;19.036;2023-05-29T00:01:40;100190.88;;;15.05;61.46
56604;BME280;42486;47.478;19.036;2023-05-29T00:04:48;100187.88;;;15.00;61.73
56604;BME280;42486;47.478;19.036;2023-05-29T00:07:58;100186.22;;;14.99;61.51
56604;BME280;42486;47.478;19.036;2023-05-29T00:11:10;100183.37;;;14.83;62.17
56604;BME280;42486;47.478;19.036;2023-05-29T00:14:15;100187.00;;;14.82;61.79
56604;BME280;42486;47.478;19.036;2023-05-29T00:17:36;100193.06;;;14.82;61.29
56604;BME280;42486;47.478;19.036;2023-05-29T00:20:43;100193.78;;;14.74;62.47
56604;BME280;42486;47.478;19.036;2023-05-29T00:23:47;100206.81;;;14.76;63.00
56604;BME280;42486;47.478;19.036;2023-05-29T00:26:59;100194.22;;;14.70;64.17
56604;BME280;42486;47.478;19.036;2023-05-29T00:30:13;100208.56;;;14.85;65.02
56604;BME280;42486;47.478;19.036;2023-05-29T00:33:21;100214.25;;;14.81;65.34
56604;BME280;42486;47.478;19.036;2023-05-29T00:36:28;100214.50;;;14.87;65.89
56604;BME280;42486;47.478;19.036;2023-05-29T00:39:37;100213.53;;;14.88;66.70
56604;BME280;42486;47.478;19.036;2023-05-29T00:42:43;100202.59;;;14.83;67.27
56604;BME280;42486;47.478;19.036;2023-05-29T00:45:48;100203.72;;;14.81;67.76
56604;BME280;42486;47.478;19.036;2023-05-29T00:48:51;100188.50;;;14.84;67.67
56604;BME280;42486;47.478;19.036;2023-05-29T00:51:55;100190.88;;;14.78;68.13
56604;BME280;42486;47.478;19.036;2023-05-29T00:55:09;100190.88;;;14.68;68.52
56604;BME280;42486;47.478;19.036;2023-05-29T00:58:15;100186.72;;;14.75;68.95
56604;BME280;42486;47.478;19.036;2023-05-29T01:01:20;100181.03;;;14.80;69.00
56604;BME280;42486;47.478;19.036;2023-05-29T01:04:26;100170.53;;;14.80;68.61
56604;BME280;42486;47.478;19.036;2023-05-29T01:07:33;100174.69;;;14.72;69.13
56604;BME280;42486;47.478;19.036;2023-05-29T01:10:40;100181.16;;;14.78;69.54
56604;BME280;42486;47.478;19.036;2023-05-29T01:13:50;100180.22;;;14.79;69.22
56604;BME280;42486;47.478;19.036;2023-05-29T01:17:07;100178.12;;;14.83;69.14
56604;BME280;42486;47.478;19.036;2023-05-29T01:26:58;100178.59;;;14.68;68.89
56604;BME280;42486;47.478;19.036;2023-05-29T01:30:12;100179.84;;;14.64;67.62
56604;BME280;42486;47.478;19.036;2023-05-29T01:33:17;100175.81;;;14.70;68.00
56604;BME280;42486;47.478;19.036;2023-05-29T01:36:22;100168.22;;;14.67;68.34
56604;BME280;42486;47.478;19.036;2023-05-29T01:39:28;100173.06;;;14.62;69.22
56604;BME280;42486;47.478;19.036;2023-05-29T01:42:33;100165.47;;;14.59;68.34
56604;BME280;42486;47.478;19.036;2023-05-29T01:45:39;100160.91;;;14.61;68.68
56604;BME280;42486;47.478;19.036;2023-05-29T01:48:44;100159.09;;;14.61;69.40
56604;BME280;42486;47.478;19.036;2023-05-29T01:51:49;100152.03;;;14.52;69.49
56604;BME280;42486;47.478;19.036;2023-05-29T01:54:55;100150.66;;;14.48;70.44
56604;BME280;42486;47.478;19.036;2023-05-29T01:58:02;100154.94;;;14.49;70.98
56604;BME280;42486;47.478;19.036;2023-05-29T02:01:06;100157.03;;;14.45;70.24
56604;BME280;42486;47.478;19.036;2023-05-29T02:04:11;100155.09;;;14.47;70.68
56604;BME280;42486;47.478;19.036;2023-05-29T02:07:17;100150.03;;;14.36;72.13
56604;BME280;42486;47.478;19.036;2023-05-29T02:10:21;100153.06;;;14.31;71.46
56604;BME280;42486;47.478;19.036;2023-05-29T02:13:29;100155.00;;;14.20;72.48
56604;BME280;42486;47.478;19.036;2023-05-29T02:16:34;100156.00;;;14.19;72.47
56604;BME280;42486;47.478;19.036;2023-05-29T02:19:40;100151.84;;;14.16;73.10
56604;BME280;42486;47.478;19.036;2023-05-29T02:22:49;100133.75;;;14.13;73.23
56604;BME280;42486;47.478;19.036;2023-05-29T02:25:56;100142.03;;;14.18;74.58
56604;BME280;42486;47.478;19.036;2023-05-29T02:29:00;100137.47;;;14.20;73.11
56604;BME280;42486;47.478;19.036;2023-05-29T02:32:05;100150.59;;;14.20;72.56
56604;BME280;42486;47.478;19.036;2023-05-29T02:35:09;100147.00;;;14.21;74.46
56604;BME280;42486;47.478;19.036;2023-05-29T02:38:15;100155.16;;;14.18;73.98
56604;BME280;42486;47.478;19.036;2023-05-29T02:41:19;100141.63;;;14.23;75.10
56604;BME280;42486;47.478;19.036;2023-05-29T02:44:24;100150.31;;;14.14;74.05
56604;BME280;42486;47.478;19.036;2023-05-29T02:47:29;100138.87;;;14.05;74.99
56604;BME280;42486;47.478;19.036;2023-05-29T02:50:35;100133.62;;;13.95;76.26
56604;BME280;42486;47.478;19.036;2023-05-29T02:53:41;100131.97;;;13.94;76.22
56604;BME280;42486;47.478;19.036;2023-05-29T02:56:47;100130.31;;;13.93;77.80
56604;BME280;42486;47.478;19.036;2023-05-29T02:59:52;100134.59;;;13.94;77.41
56604;BME280;42486;47.478;19.036;2023-05-29T03:02:58;100130.16;;;13.95;78.70
56604;BME280;42486;47.478;19.036;2023-05-29T03:06:07;100130.00;;;14.06;78.67
56604;BME280;42486;47.478;19.036;2023-05-29T03:09:14;100128.63;;;14.12;78.28
56604;BME280;42486;47.478;19.036;2023-05-29T03:12:25;100125.84;;;14.13;79.12
56604;BME280;42486;47.478;19.036;2023-05-29T03:15:31;100128.63;;;14.12;79.32
56604;BME280;42486;47.478;19.036;2023-05-29T03:18:43;100128.63;;;14.12;79.33
56604;BME280;42486;47.478;19.036;2023-05-29T03:21:50;100134.84;;;14.20;79.63
56604;BME280;42486;47.478;19.036;2023-05-29T03:24:57;100127.19;;;14.27;79.93
56604;BME280;42486;47.478;19.036;2023-05-29T03:28:03;100129.53;;;14.30;79.29
56604;BME280;42486;47.478;19.036;2023-05-29T03:31:06;100139.50;;;14.36;81.25
56604;BME280;42486;47.478;19.036;2023-05-29T03:34:12;100134.91;;;14.38;81.28
56604;BME280;42486;47.478;19.036;2023-05-29T03:37:16;100140.56;;;14.43;81.08
56604;BME280;42486;47.478;19.036;2023-05-29T03:40:20;100144.44;;;14.49;81.38
56604;BME280;42486;47.478;19.036;2023-05-29T03:43:25;100153.97;;;14.60;81.18
56604;BME280;42486;47.478;19.036;2023-05-29T03:46:32;100158.56;;;14.58;80.64
56604;BME280;42486;47.478;19.036;2023-05-29T03:49:38;100157.72;;;14.47;83.07
56604;BME280;42486;47.478;19.036;2023-05-29T03:52:43;100168.38;;;14.46;83.66
56604;BME280;42486;47.478;19.036;2023-05-29T03:55:50;100170.47;;;14.42;83.70
56604;BME280;42486;47.478;19.036;2023-05-29T03:58:55;100172.22;;;14.51;82.59
56604;BME280;42486;47.478;19.036;2023-05-29T04:02:02;100174.88;;;14.61;83.35
56604;BME280;42486;47.478;19.036;2023-05-29T04:05:08;100175.41;;;14.65;82.60
56604;BME280;42486;47.478;19.036;2023-05-29T04:08:18;100170.53;;;14.70;82.97
56604;BME280;42486;47.478;19.036;2023-05-29T04:11:22;100165.78;;;14.83;82.61
56604;BME280;42486;47.478;19.036;2023-05-29T04:14:28;100168.00;;;14.88;81.62
56604;BME280;42486;47.478;19.036;2023-05-29T04:17:38;100165.03;;;15.01;82.39
56604;BME280;42486;47.478;19.036;2023-05-29T04:20:44;100167.59;;;15.10;81.45
56604;BME280;42486;47.478;19.036;2023-05-29T04:23:51;100180.47;;;15.13;81.48
56604;BME280;42486;47.478;19.036;2023-05-29T04:26:55;100184.41;;;15.27;80.99
56604;BME280;42486;47.478;19.036;2023-05-29T04:30:03;100183.50;;;15.36;81.17
56604;BME280;42486;47.478;19.036;2023-05-29T04:33:13;100178.19;;;15.46;79.34
56604;BME280;42486;47.478;19.036;2023-05-29T04:36:18;100184.13;;;15.66;77.33
56604;BME280;42486;47.478;19.036;2023-05-29T04:39:23;100182.91;;;16.32;73.95
56604;BME280;42486;47.478;19.036;2023-05-29T04:42:26;100190.25;;;16.99;70.43
56604;BME280;42486;47.478;19.036;2023-05-29T04:45:32;100188.88;;;16.86;70.54
56604;BME280;42486;47.478;19.036;2023-05-29T04:48:40;100188.12;;;16.76;72.73
56604;BME280;42486;47.478;19.036;2023-05-29T04:51:45;100196.37;;;16.73;72.44
56604;BME280;42486;47.478;19.036;2023-05-29T04:54:55;100184.75;;;16.84;71.74
56604;BME280;42486;47.478;19.036;2023-05-29T04:58:02;100193.16;;;16.87;71.05
56604;BME280;42486;47.478;19.036;2023-05-29T05:01:07;100198.19;;;17.07;73.86
56604;BME280;42486;47.478;19.036;2023-05-29T05:04:17;100200.44;;;18.19;67.48
56604;BME280;42486;47.478;19.036;2023-05-29T05:07:20;100205.94;;;19.61;61.32
56604;BME280;42486;47.478;19.036;2023-05-29T05:10:24;100200.28;;;19.64;59.09
56604;BME280;42486;47.478;19.036;2023-05-29T05:13:32;100201.62;;;19.59;58.61
56604;BME280;42486;47.478;19.036;2023-05-29T05:16:40;100205.78;;;19.54;59.05
56604;BME280;42486;47.478;19.036;2023-05-29T05:19:45;100206.34;;;19.18;61.37
56604;BME280;42486;47.478;19.036;2023-05-29T05:22:49;100206.72;;;18.99;61.88
56604;BME280;42486;47.478;19.036;2023-05-29T05:25:55;100212.16;;;19.05;60.29
56604;BME280;42486;47.478;19.036;2023-05-29T05:29:03;100208.47;;;18.51;62.18
56604;BME280;42486;47.478;19.036;2023-05-29T05:32:06;100211.81;;;18.36;64.24
56604;BME280;42486;47.478;19.036;2023-05-29T05:35:13;100217.56;;;18.56;62.88
56604;BME280;42486;47.478;19.036;2023-05-29T05:38:17;100204.25;;;18.97;61.53
56604;BME280;42486;47.478;19.036;2023-05-29T05:41:23;100204.06;;;18.99;61.43
56604;BME280;42486;47.478;19.036;2023-05-29T05:44:29;100210.56;;;18.88;61.91
56604;BME280;42486;47.478;19.036;2023-05-29T05:47:33;100201.16;;;18.77;62.47
56604;BME280;42486;47.478;19.036;2023-05-29T05:50:38;100208.12;;;18.78;61.36
56604;BME280;42486;47.478;19.036;2023-05-29T05:53:41;100205.28;;;18.71;60.89
56604;BME280;42486;47.478;19.036;2023-05-29T05:56:45;100207.31;;;18.78;61.01
56604;BME280;42486;47.478;19.036;2023-05-29T05:59:53;100210.44;;;18.81;60.92
56604;BME280;42486;47.478;19.036;2023-05-29T06:02:58;100211.22;;;18.90;59.64
56604;BME280;42486;47.478;19.036;2023-05-29T06:06:05;100214.69;;;18.90;59.55
56604;BME280;42486;47.478;19.036;2023-05-29T06:09:14;100219.69;;;18.94;59.19
56604;BME280;42486;47.478;19.036;2023-05-29T06:12:19;100221.44;;;19.01;58.63
56604;BME280;42486;47.478;19.036;2023-05-29T06:15:22;100230.53;;;19.15;58.32
56604;BME280;42486;47.478;19.036;2023-05-29T06:18:27;100233.63;;;19.19;58.83
56604;BME280;42486;47.478;19.036;2023-05-29T06:21:32;100227.47;;;19.26;56.95
56604;BME280;42486;47.478;19.036;2023-05-29T06:24:38;100229.25;;;19.96;54.21
56604;BME280;42486;47.478;19.036;2023-05-29T06:27:44;100237.66;;;20.61;53.28
56604;BME280;42486;47.478;19.036;2023-05-29T06:30:52;100244.13;;;20.66;52.83
56604;BME280;42486;47.478;19.036;2023-05-29T06:33:57;100245.31;;;20.64;52.27
56604;BME280;42486;47.478;19.036;2023-05-29T06:37:00;100248.31;;;20.38;51.95
56604;BME280;42486;47.478;19.036;2023-05-29T06:40:04;100248.16;;;20.16;53.81
56604;BME280;42486;47.478;19.036;2023-05-29T06:43:09;100246.56;;;20.30;55.16
56604;BME280;42486;47.478;19.036;2023-05-29T06:46:12;100243.91;;;20.68;55.70
56604;BME280;42486;47.478;19.036;2023-05-29T06:49:16;100246.50;;;20.38;55.35
56604;BME280;42486;47.478;19.036;2023-05-29T06:52:20;100246.31;;;20.40;53.36
56604;BME280;42486;47.478;19.036;2023-05-29T06:55:24;100252.34;;;20.72;55.13
56604;BME280;42486;47.478;19.036;2023-05-29T06:58:29;100253.44;;;20.92;54.46
56604;BME280;42486;47.478;19.036;2023-05-29T07:01:33;100255.62;;;20.74;53.45
56604;BME280;42486;47.478;19.036;2023-05-29T07:04:37;100252.91;;;20.82;53.41
56604;BME280;42486;47.478;19.036;2023-05-29T07:07:39;100256.59;;;20.96;53.63
56604;BME280;42486;47.478;19.036;2023-05-29T07:10:44;100256.56;;;21.40;53.36
56604;BME280;42486;47.478;19.036;2023-05-29T07:13:48;100251.38;;;22.26;50.73
56604;BME280;42486;47.478;19.036;2023-05-29T07:16:51;100259.66;;;23.36;48.53
56604;BME280;42486;47.478;19.036;2023-05-29T07:19:54;100264.81;;;24.65;45.03
56604;BME280;42486;47.478;19.036;2023-05-29T07:23:00;100268.44;;;25.69;41.44
56604;BME280;42486;47.478;19.036;2023-05-29T07:26:03;100272.41;;;26.98;39.83
56604;BME280;42486;47.478;19.036;2023-05-29T07:29:06;100277.75;;;25.60;41.02
56604;BME280;42486;47.478;19.036;2023-05-29T07:32:10;100278.19;;;24.32;45.41
56604;BME280;42486;47.478;19.036;2023-05-29T07:35:14;100277.41;;;23.57;48.01
56604;BME280;42486;47.478;19.036;2023-05-29T07:38:18;100281.28;;;22.84;49.18
56604;BME280;42486;47.478;19.036;2023-05-29T07:41:21;100286.62;;;22.56;50.68
56604;BME280;42486;47.478;19.036;2023-05-29T07:44:25;100288.84;;;22.31;51.84
56604;BME280;42486;47.478;19.036;2023-05-29T07:47:27;100300.28;;;22.25;52.66
56604;BME280;42486;47.478;19.036;2023-05-29T07:50:31;100297.22;;;22.28;52.75
56604;BME280;42486;47.478;19.036;2023-05-29T07:53:34;100312.63;;;22.33;52.54
56604;BME280;42486;47.478;19.036;2023-05-29T07:56:37;100301.78;;;22.56;53.58
56604;BME280;42486;47.478;19.036;2023-05-29T07:59:41;100305.28;;;24.22;47.87
56604;BME280;42486;47.478;19.036;2023-05-29T08:02:43;100303.66;;;25.01;45.45
56604;BME280;42486;47.478;19.036;2023-05-29T08:05:48;100301.16;;;24.99;44.72
56604;BME280;42486;47.478;19.036;2023-05-29T08:08:51;100301.37;;;25.04;44.93
56604;BME280;42486;47.478;19.036;2023-05-29T08:11:55;100302.44;;;24.90;45.61
56604;BME280;42486;47.478;19.036;2023-05-29T08:15:02;100297.53;;;24.60;47.21
56604;BME280;42486;47.478;19.036;2023-05-29T08:18:06;100288.06;;;24.85;46.44
56604;BME280;42486;47.478;19.036;2023-05-29T08:21:09;100291.25;;;25.26;45.04
56604;BME280;42486;47.478;19.036;2023-05-29T08:24:13;100300.28;;;26.47;42.80
56604;BME280;42486;47.478;19.036;2023-05-29T08:27:16;100300.03;;;28.45;38.19
56604;BME280;42486;47.478;19.036;2023-05-29T08:30:22;100306.25;;;28.69;36.88
56604;BME280;42486;47.478;19.036;2023-05-29T08:33:25;100299.25;;;27.35;39.00
56604;BME280;42486;47.478;19.036;2023-05-29T08:36:28;100298.28;;;25.66;42.47
56604;BME280;42486;47.478;19.036;2023-05-29T08:39:31;100296.44;;;25.21;44.14
56604;BME280;42486;47.478;19.036;2023-05-29T08:42:45;100283.88;;;25.22;45.75
56604;BME280;42486;47.478;19.036;2023-05-29T08:45:52;100292.22;;;25.45;44.32
56604;BME280;42486;47.478;19.036;2023-05-29T08:48:56;100284.16;;;25.59;45.44
56604;BME280;42486;47.478;19.036;2023-05-29T08:52:06;100286.84;;;25.97;44.80
56604;BME280;42486;47.478;19.036;2023-05-29T08:55:13;100292.66;;;26.19;42.14
56604;BME280;42486;47.478;19.036;2023-05-29T08:58:17;100291.75;;;26.32;43.51
56604;BME280;42486;47.478;19.036;2023-05-29T09:01:21;100279.88;;;25.89;42.16
56604;BME280;42486;47.478;19.036;2023-05-29T09:04:27;100284.53;;;24.91;42.98
56604;BME280;42486;47.478;19.036;2023-05-29T09:07:33;100275.38;;;25.32;44.68
56604;BME280;42486;47.478;19.036;2023-05-29T09:10:36;100280.34;;;25.73;43.38
56604;BME280;42486;47.478;19.036;2023-05-29T09:13:40;100289.25;;;25.67;42.45
56604;BME280;42486;47.478;19.036;2023-05-29T09:16:43;100285.69;;;25.28;43.54
56604;BME280;42486;47.478;19.036;2023-05-29T09:19:48;100292.19;;;25.52;43.33
56604;BME280;42486;47.478;19.036;2023-05-29T09:22:55;100283.22;;;25.71;45.39
56604;BME280;42486;47.478;19.036;2023-05-29T09:25:59;100289.72;;;25.96;42.32
56604;BME280;42486;47.478;19.036;2023-05-29T09:29:05;100289.31;;;25.99;42.26
56604;BME280;42486;47.478;19.036;2023-05-29T09:32:09;100279.12;;;25.69;42.81
56604;BME280;42486;47.478;19.036;2023-05-29T09:35:14;100289.44;;;25.65;42.79
56604;BME280;42486;47.478;19.036;2023-05-29T09:38:19;100292.41;;;25.51;43.67
56604;BME280;42486;47.478;19.036;2023-05-29T09:41:27;100290.09;;;24.82;44.31
56604;BME280;42486;47.478;19.036;2023-05-29T09:44:30;100288.09;;;24.58;45.00
56604;BME280;42486;47.478;19.036;2023-05-29T09:47:33;100289.25;;;24.22;46.46
56604;BME280;42486;47.478;19.036;2023-05-29T09:50:37;100291.31;;;24.13;47.39
56604;BME280;42486;47.478;19.036;2023-05-29T09:53:44;100290.44;;;23.93;46.85
56604;BME280;42486;47.478;19.036;2023-05-29T09:56:49;100291.50;;;24.05;47.54
56604;BME280;42486;47.478;19.036;2023-05-29T09:59:57;100288.00;;;23.98;47.63
56604;BME280;42486;47.478;19.036;2023-05-29T10:03:01;100294.16;;;23.44;47.48
56604;BME280;42486;47.478;19.036;2023-05-29T10:06:04;100296.53;;;23.32;48.99
56604;BME280;42486;47.478;19.036;2023-05-29T10:09:12;100289.22;;;23.41;49.63
56604;BME280;42486;47.478;19.036;2023-05-29T10:12:16;100304.47;;;23.60;49.27
56604;BME280;42486;47.478;19.036;2023-05-29T10:15:23;100303.59;;;23.46;49.69
56604;BME280;42486;47.478;19.036;2023-05-29T10:18:27;100302.63;;;23.54;49.81
56604;BME280;42486;47.478;19.036;2023-05-29T10:21:33;100308.59;;;23.63;50.15
56604;BME280;42486;47.478;19.036;2023-05-29T10:24:39;100312.16;;;23.77;50.85
56604;BME280;42486;47.478;19.036;2023-05-29T10:27:42;100307.59;;;23.70;50.04
56604;BME280;42486;47.478;19.036;2023-05-29T10:30:51;100305.59;;;23.79;49.83
56604;BME280;42486;47.478;19.036;2023-05-29T10:34:14;100299.72;;;23.56;50.63
56604;BME280;42486;47.478;19.036;2023-05-29T10:37:27;100293.22;;;23.65;52.94
56604;BME280;42486;47.478;19.036;2023-05-29T10:40:35;100299.03;;;23.82;50.38
56604;BME280;42486;47.478;19.036;2023-05-29T10:43:40;100298.25;;;23.94;51.55
56604;BME280;42486;47.478;19.036;2023-05-29T10:49:54;100288.66;;;24.40;49.09
56604;BME280;42486;47.478;19.036;2023-05-29T10:53:02;100290.28;;;24.28;48.39
56604;BME280;42486;47.478;19.036;2023-05-29T10:56:04;100281.03;;;23.97;50.64
56604;BME280;42486;47.478;19.036;2023-05-29T10:59:10;100285.28;;;23.85;52.15
56604;BME280;42486;47.478;19.036;2023-05-29T11:02:17;100280.53;;;23.73;50.23
56604;BME280;42486;47.478;19.036;2023-05-29T11:05:21;100281.13;;;23.21;53.10
56604;BME280;42486;47.478;19.036;2023-05-29T11:08:44;100285.13;;;23.38;53.51
56604;BME280;42486;47.478;19.036;2023-05-29T11:12:07;100282.81;;;23.28;57.29
56604;BME280;42486;47.478;19.036;2023-05-29T11:15:13;100279.75;;;22.97;58.26
56604;BME280;42486;47.478;19.036;2023-05-29T11:18:16;100282.94;;;22.85;56.34
56604;BME280;42486;47.478;19.036;2023-05-29T11:24:27;100283.12;;;22.84;57.55
56604;BME280;42486;47.478;19.036;2023-05-29T11:27:30;100277.63;;;22.85;58.28
56604;BME280;42486;47.478;19.036;2023-05-29T11:30:43;100284.19;;;22.90;59.01
56604;BME280;42486;47.478;19.036;2023-05-29T11:33:48;100275.19;;;22.62;56.72
56604;BME280;42486;47.478;19.036;2023-05-29T11:36:59;100283.41;;;22.68;55.82
56604;BME280;42486;47.478;19.036;2023-05-29T11:40:04;100271.78;;;22.69;57.63
56604;BME280;42486;47.478;19.036;2023-05-29T11:43:08;100276.75;;;22.78;56.31
56604;BME280;42486;47.478;19.036;2023-05-29T11:46:17;100270.69;;;22.91;55.81
56604;BME280;42486;47.478;19.036;2023-05-29T11:49:30;100268.31;;;23.03;54.95
56604;BME280;42486;47.478;19.036;2023-05-29T11:52:34;100260.53;;;23.08;55.23
56604;BME280;42486;47.478;19.036;2023-05-29T11:55:40;100250.63;;;23.30;53.25
56604;BME280;42486;47.478;19.036;2023-05-29T11:58:43;100248.38;;;23.34;52.92
56604;BME280;42486;47.478;19.036;2023-05-29T12:01:48;100240.91;;;23.16;52.63
56604;BME280;42486;47.478;19.036;2023-05-29T12:05:04;100234.81;;;23.22;52.21
56604;BME280;42486;47.478;19.036;2023-05-29T12:08:09;100223.78;;;23.45;52.89
56604;BME280;42486;47.478;19.036;2023-05-29T12:11:12;100222.38;;;23.49;51.55
56604;BME280;42486;47.478;19.036;2023-05-29T12:14:16;100224.31;;;23.82;50.85
56604;BME280;42486;47.478;19.036;2023-05-29T12:17:20;100217.56;;;24.06;50.40
56604;BME280;42486;47.478;19.036;2023-05-29T12:20:24;100214.94;;;24.26;50.49
56604;BME280;42486;47.478;19.036;2023-05-29T12:23:30;100211.19;;;24.33;51.12
56604;BME280;42486;47.478;19.036;2023-05-29T12:26:33;100216.16;;;24.36;49.60
56604;BME280;42486;47.478;19.036;2023-05-29T12:29:36;100208.34;;;24.15;50.22
56604;BME280;42486;47.478;19.036;2023-05-29T12:32:39;100205.47;;;23.97;50.78
56604;BME280;42486;47.478;19.036;2023-05-29T12:35:45;100201.34;;;24.14;50.72
56604;BME280;42486;47.478;19.036;2023-05-29T12:38:51;100195.38;;;24.38;48.52
56604;BME280;42486;47.478;19.036;2023-05-29T12:41:54;100204.53;;;24.89;49.91
56604;BME280;42486;47.478;19.036;2023-05-29T12:45:00;100198.12;;;25.55;49.00
56604;BME280;42486;47.478;19.036;2023-05-29T12:48:04;100191.25;;;25.98;44.87
56604;BME280;42486;47.478;19.036;2023-05-29T12:51:09;100192.81;;;25.48;44.15
56604;BME280;42486;47.478;19.036;2023-05-29T12:54:15;100182.87;;;25.17;44.25
56604;BME280;42486;47.478;19.036;2023-05-29T12:57:20;100189.94;;;24.98;47.36
56604;BME280;42486;47.478;19.036;2023-05-29T13:00:25;100195.91;;;25.00;48.36
56604;BME280;42486;47.478;19.036;2023-05-29T13:03:28;100189.69;;;25.00;44.81
56604;BME280;42486;47.478;19.036;2023-05-29T13:06:39;100192.25;;;24.81;46.38
56604;BME280;42486;47.478;19.036;2023-05-29T13:09:42;100191.19;;;24.89;48.60
56604;BME280;42486;47.478;19.036;2023-05-29T13:12:45;100195.94;;;24.80;45.84
56604;BME280;42486;47.478;19.036;2023-05-29T13:15:48;100189.50;;;25.01;46.34
56604;BME280;42486;47.478;19.036;2023-05-29T13:18:51;100194.91;;;24.88;47.45
56604;BME280;42486;47.478;19.036;2023-05-29T13:21:53;100187.84;;;25.07;50.32
56604;BME280;42486;47.478;19.036;2023-05-29T13:24:58;100187.19;;;25.12;45.40
56604;BME280;42486;47.478;19.036;2023-05-29T13:28:04;100192.94;;;25.22;43.48
56604;BME280;42486;47.478;19.036;2023-05-29T13:31:06;100182.53;;;25.00;44.73
56604;BME280;42486;47.478;19.036;2023-05-29T13:34:09;100185.59;;;25.04;44.83
56604;BME280;42486;47.478;19.036;2023-05-29T13:37:13;100170.56;;;25.10;47.95
56604;BME280;42486;47.478;19.036;2023-05-29T13:40:16;100168.50;;;25.12;47.65
56604;BME280;42486;47.478;19.036;2023-05-29T13:43:21;100168.69;;;25.17;48.20
56604;BME280;42486;47.478;19.036;2023-05-29T13:46:40;100166.63;;;25.12;47.64
56604;BME280;42486;47.478;19.036;2023-05-29T13:49:45;100171.06;;;25.38;47.05
56604;BME280;42486;47.478;19.036;2023-05-29T13:52:48;100170.69;;;25.35;45.30
56604;BME280;42486;47.478;19.036;2023-05-29T13:55:52;100175.25;;;25.59;46.24
56604;BME280;42486;47.478;19.036;2023-05-29T13:58:55;100170.66;;;25.66;46.42
56604;BME280;42486;47.478;19.036;2023-05-29T14:01:57;100171.59;;;25.85;46.01
56604;BME280;42486;47.478;19.036;2023-05-29T14:05:01;100177.88;;;25.66;44.20
56604;BME280;42486;47.478;19.036;2023-05-29T14:08:04;100162.69;;;25.91;46.11
56604;BME280;42486;47.478;19.036;2023-05-29T14:11:07;100161.31;;;26.07;43.33
56604;BME280;42486;47.478;19.036;2023-05-29T14:14:11;100158.84;;;26.31;43.57
56604;BME280;42486;47.478;19.036;2023-05-29T14:17:13;100152.31;;;26.45;44.00
56604;BME280;42486;47.478;19.036;2023-05-29T14:20:16;100156.66;;;26.65;42.36
56604;BME280;42486;47.478;19.036;2023-05-29T14:23:19;100156.28;;;26.79;43.32
56604;BME280;42486;47.478;19.036;2023-05-29T14:26:23;100154.06;;;26.76;44.95
56604;BME280;42486;47.478;19.036;2023-05-29T14:29:27;100155.63;;;26.66;44.20
56604;BME280;42486;47.478;19.036;2023-05-29T14:32:30;100152.69;;;26.30;43.53
56604;BME280;42486;47.478;19.036;2023-05-29T14:35:34;100156.59;;;26.09;44.87
56604;BME280;42486;47.478;19.036;2023-05-29T14:38:38;100162.31;;;25.88;45.56
56604;BME280;42486;47.478;19.036;2023-05-29T14:41:41;100158.84;;;25.81;46.40
56604;BME280;42486;47.478;19.036;2023-05-29T14:44:49;100154.19;;;25.69;46.04
56604;BME280;42486;47.478;19.036;2023-05-29T14:47:53;100162.34;;;25.49;48.70
56604;BME280;42486;47.478;19.036;2023-05-29T14:50:57;100161.34;;;25.44;48.36
56604;BME280;42486;47.478;19.036;2023-05-29T14:54:03;100153.84;;;25.27;46.21
56604;BME280;42486;47.478;19.036;2023-05-29T14:57:06;100153.47;;;25.24;47.90
56604;BME280;42486;47.478;19.036;2023-05-29T15:00:10;100156.34;;;25.22;46.76
56604;BME280;42486;47.478;19.036;2023-05-29T15:03:14;100151.41;;;25.19;48.57
56604;BME280;42486;47.478;19.036;2023-05-29T15:06:19;100149.03;;;24.91;47.47
56604;BME280;42486;47.478;19.036;2023-05-29T15:09:21;100157.28;;;24.90;46.33
56604;BME280;42486;47.478;19.036;2023-05-29T15:12:24;100149.66;;;24.93;45.45
56604;BME280;42486;47.478;19.036;2023-05-29T15:15:27;100144.94;;;24.89;46.51
56604;BME280;42486;47.478;19.036;2023-05-29T15:18:47;100143.91;;;24.90;46.28
56604;BME280;42486;47.478;19.036;2023-05-29T15:21:50;100142.94;;;24.77;48.90
56604;BME280;42486;47.478;19.036;2023-05-29T15:24:53;100153.44;;;24.72;48.83
56604;BME280;42486;47.478;19.036;2023-05-29T15:27:58;100147.50;;;24.64;48.79
56604;BME280;42486;47.478;19.036;2023-05-29T15:31:01;100155.13;;;24.53;48.89
56604;BME280;42486;47.478;19.036;2023-05-29T15:34:05;100142.81;;;24.39;49.97
56604;BME280;42486;47.478;19.036;2023-05-29T15:37:08;100141.59;;;24.22;48.96
56604;BME280;42486;47.478;19.036;2023-05-29T15:40:13;100140.75;;;24.28;50.07
56604;BME280;42486;47.478;19.036;2023-05-29T15:43:16;100136.88;;;24.17;49.77
56604;BME280;42486;47.478;19.036;2023-05-29T15:46:19;100141.78;;;24.20;50.99
56604;BME280;42486;47.478;19.036;2023-05-29T15:49:22;100138.91;;;24.22;49.09
56604;BME280;42486;47.478;19.036;2023-05-29T15:52:27;100130.09;;;24.21;50.03
56604;BME280;42486;47.478;19.036;2023-05-29T15:55:36;100127.19;;;24.36;50.31
56604;BME280;42486;47.478;19.036;2023-05-29T15:58:42;100125.34;;;24.30;50.57
56604;BME280;42486;47.478;19.036;2023-05-29T16:01:48;100128.22;;;24.35;49.89
56604;BME280;42486;47.478;19.036;2023-05-29T16:04:54;100122.06;;;24.28;50.67
56604;BME280;42486;47.478;19.036;2023-05-29T16:08:09;100122.28;;;24.26;51.73
56604;BME280;42486;47.478;19.036;2023-05-29T16:11:13;100126.41;;;24.15;50.78